Time;durP1;ratioP1;P1;durP2;ratioP2;P2;SDS_P1;SDS_P2;PMS_P1;PMS_P2;Temp;Humidity;BMP_temperature;BMP_pressure;BME280_temperature;BME280_humidity;BME280_pressure;Samples;Min_cycle;Max_cycle;Signal;HPM_P1;HPM_P2
2021/12/17 00:01:00;;;;;;;8.15;2.28;;;24.40;99.90;;;;;;4953696;28;20086;-74
2021/12/17 00:03:42;;;;;;;10.15;2.58;;;24.30;99.90;;;;;;4953767;28;20036;-76
2021/12/17 00:07:02;;;;;;;10.38;2.30;;;24.50;99.90;;;;;;4953749;28;20115;-79
2021/12/17 00:09:04;;;;;;;10.30;2.90;;;24.50;99.20;;;;;;4945529;28;20551;-78
2021/12/17 00:11:31;;;;;;;13.20;2.60;;;24.40;99.20;;;;;;4952830;28;20027;-78
2021/12/17 00:13:59;;;;;;;13.35;3.03;;;24.40;99.40;;;;;;4956721;28;20027;-77
2021/12/17 00:16:32;;;;;;;8.43;2.95;;;24.50;99.50;;;;;;4972153;28;20117;-75
2021/12/17 00:50:33;;;;;;;11.43;2.17;;;23.80;99.90;;;;;;4975786;28;20081;-78
2021/12/17 00:52:57;;;;;;;7.53;2.75;;;23.80;99.90;;;;;;4975564;28;20027;-78
2021/12/17 00:55:25;;;;;;;14.20;3.05;;;23.80;99.90;;;;;;4975433;28;20046;-78
2021/12/17 00:57:52;;;;;;;15.32;2.20;;;23.80;99.90;;;;;;4976427;28;20055;-78
2021/12/17 01:00:23;;;;;;;10.10;2.25;;;23.80;99.90;;;;;;4976398;28;20468;-77
2021/12/17 01:02:51;;;;;;;12.82;2.35;;;23.80;99.90;;;;;;4975566;28;20035;-81
2021/12/17 01:05:24;;;;;;;9.55;2.63;;;23.80;99.90;;;;;;4975324;28;20398;-76
2021/12/17 01:07:54;;;;;;;13.65;2.58;;;23.90;99.90;;;;;;4974985;28;20054;-76
2021/12/17 01:10:36;;;;;;;8.73;1.98;;;24.00;99.90;;;;;;4975575;28;20030;-75
2021/12/17 01:13:07;;;;;;;17.80;3.55;;;24.10;99.90;;;;;;4975213;28;20081;-78
2021/12/17 01:15:36;;;;;;;6.65;2.00;;;24.20;99.90;;;;;;4975019;28;20034;-79
2021/12/17 01:18:10;;;;;;;10.98;2.65;;;24.30;99.90;;;;;;4975463;28;20027;-83
2021/12/17 01:25:49;;;;;;;15.95;4.40;;;24.70;99.50;;;;;;4975763;28;20062;-77
2021/12/17 01:36:34;;;;;;;12.13;2.70;;;24.40;98.50;;;;;;4966251;28;20081;-78
2021/12/17 01:40:16;;;;;;;14.93;3.22;;;24.20;99.10;;;;;;4964819;28;20020;-78
2021/12/17 01:42:05;;;;;;;11.93;3.17;;;24.10;99.90;;;;;;4959585;28;20480;-79
2021/12/17 01:44:35;;;;;;;10.35;3.13;;;24.10;99.90;;;;;;4965357;28;20950;-76
2021/12/17 01:47:04;;;;;;;14.27;2.80;;;24.10;99.90;;;;;;4963684;28;20420;-75
2021/12/17 02:00:33;;;;;;;11.40;3.03;;;24.50;99.90;;;;;;4964369;28;20026;-76
2021/12/17 02:03:01;;;;;;;13.35;3.67;;;24.70;99.70;;;;;;4963253;28;20027;-76
2021/12/17 02:05:29;;;;;;;13.13;3.45;;;24.90;99.20;;;;;;4962587;28;20027;-73
2021/12/17 02:07:58;;;;;;;12.65;3.00;;;25.10;99.10;;;;;;4964399;28;20022;-74
2021/12/17 02:32:18;;;;;;;12.75;2.67;;;25.40;98.10;;;;;;4967999;28;20034;-75
2021/12/17 02:37:33;;;;;;;13.48;4.85;;;25.90;97.70;;;;;;4967457;28;20619;-74
2021/12/17 02:45:32;;;;;;;11.55;2.05;;;27.10;94.80;;;;;;4967334;28;20453;-74
2021/12/17 02:48:01;;;;;;;11.98;3.55;;;27.30;95.70;;;;;;4966595;28;20098;-75
2021/12/17 02:50:29;;;;;;;9.70;2.05;;;27.50;94.90;;;;;;4961277;28;20023;-71
2021/12/17 02:52:59;;;;;;;10.82;2.60;;;27.50;93.80;;;;;;4963948;28;20098;-73
2021/12/17 02:55:27;;;;;;;13.40;2.50;;;27.60;93.90;;;;;;4959172;28;20062;-73
2021/12/17 02:57:56;;;;;;;6.75;2.22;;;27.80;93.40;;;;;;4962853;28;20034;-73
2021/12/17 03:00:23;;;;;;;7.68;2.42;;;28.10;93.10;;;;;;4961592;28;20019;-73
2021/12/17 03:02:52;;;;;;;14.05;2.08;;;28.30;92.00;;;;;;4963862;28;20029;-74
2021/12/17 03:05:19;;;;;;;8.75;2.05;;;28.10;91.30;;;;;;4960893;28;20038;-73
2021/12/17 03:07:48;;;;;;;11.35;3.35;;;27.80;91.90;;;;;;4960753;28;20029;-73
2021/12/17 03:10:16;;;;;;;9.98;2.60;;;27.30;92.30;;;;;;4963085;28;20117;-73
2021/12/17 03:12:47;;;;;;;12.52;4.20;;;27.10;93.00;;;;;;4959935;28;20125;-74
2021/12/17 03:15:33;;;;;;;8.63;2.67;;;27.30;92.70;;;;;;4965680;28;20023;-72
2021/12/17 03:23:40;;;;;;;7.85;1.50;;;29.20;90.50;;;;;;4966762;28;20077;-75
2021/12/17 03:26:15;;;;;;;4.93;1.85;;;29.40;87.70;;;;;;4966014;28;20035;-74
2021/12/17 03:28:45;;;;;;;10.00;1.50;;;29.80;88.10;;;;;;4967266;28;20514;-74
2021/12/17 03:31:14;;;;;;;6.90;1.77;;;30.30;85.60;;;;;;4967146;28;20464;-73
2021/12/17 03:33:43;;;;;;;7.88;1.73;;;30.40;81.60;;;;;;4967352;28;20042;-73
2021/12/17 03:36:15;;;;;;;7.47;2.20;;;30.30;82.40;;;;;;4966938;28;20500;-74
2021/12/17 03:38:44;;;;;;;7.72;1.70;;;30.70;79.40;;;;;;4967223;28;20542;-74
2021/12/17 03:43:43;;;;;;;7.30;1.77;;;31.00;78.80;;;;;;4967198;28;20023;-73
2021/12/17 03:46:11;;;;;;;7.13;1.80;;;31.50;78.50;;;;;;4966754;28;20030;-73
2021/12/17 03:48:40;;;;;;;8.23;2.45;;;31.90;74.80;;;;;;4965426;28;20023;-74
2021/12/17 03:51:19;;;;;;;6.78;2.28;;;31.60;74.90;;;;;;4966635;28;20085;-73
2021/12/17 03:53:51;;;;;;;6.60;1.73;;;31.70;74.40;;;;;;4966673;28;20034;-74
2021/12/17 03:56:19;;;;;;;4.88;1.50;;;31.60;73.50;;;;;;4966644;28;20076;-72
2021/12/17 03:58:48;;;;;;;7.40;2.22;;;31.60;74.80;;;;;;4966198;28;20029;-74
2021/12/17 04:01:15;;;;;;;8.20;2.00;;;31.70;74.10;;;;;;4966273;28;20041;-73
2021/12/17 04:03:43;;;;;;;7.57;1.73;;;31.50;74.10;;;;;;4966449;28;20027;-73
2021/12/17 04:06:10;;;;;;;9.30;2.00;;;31.30;74.40;;;;;;4967345;28;20113;-73
2021/12/17 04:08:38;;;;;;;7.07;1.77;;;31.00;74.20;;;;;;4967393;28;20582;-73
2021/12/17 04:11:07;;;;;;;7.32;1.90;;;31.10;74.60;;;;;;4967749;28;20069;-72
2021/12/17 04:13:38;;;;;;;9.38;2.47;;;31.20;74.20;;;;;;4966999;28;21141;-73
2021/12/17 04:16:09;;;;;;;8.50;1.90;;;31.30;73.20;;;;;;4967394;28;20483;-74
2021/12/17 04:18:41;;;;;;;6.95;1.80;;;31.20;72.30;;;;;;4967037;28;20027;-74
2021/12/17 04:21:13;;;;;;;8.95;2.78;;;31.40;72.40;;;;;;4966781;28;20073;-73
2021/12/17 04:23:45;;;;;;;9.02;2.25;;;31.30;71.40;;;;;;4967132;28;20051;-72
2021/12/17 04:26:13;;;;;;;5.95;1.80;;;30.80;73.80;;;;;;4967155;28;20038;-71
2021/12/17 04:28:46;;;;;;;6.50;2.00;;;31.20;72.70;;;;;;4966823;28;20523;-74
2021/12/17 04:31:14;;;;;;;5.80;2.03;;;31.70;72.10;;;;;;4966806;28;20403;-71
2021/12/17 04:33:42;;;;;;;9.18;2.50;;;32.00;70.20;;;;;;4966354;28;20117;-72
2021/12/17 04:36:14;;;;;;;4.45;1.58;;;31.80;70.50;;;;;;4966170;28;20034;-72
2021/12/17 04:38:41;;;;;;;8.85;2.42;;;31.40;71.80;;;;;;4966311;28;20118;-73
2021/12/17 04:46:38;;;;;;;7.25;1.90;;;32.10;70.20;;;;;;4966171;28;20031;-72
2021/12/17 04:59:44;;;;;;;6.38;1.90;;;31.50;71.00;;;;;;4971895;28;20146;-72
2021/12/17 05:02:11;;;;;;;10.90;2.25;;;31.50;71.20;;;;;;4971848;28;20392;-73
2021/12/17 05:04:39;;;;;;;5.93;1.70;;;31.50;70.40;;;;;;4972005;28;20019;-71
2021/12/17 05:07:07;;;;;;;9.15;1.92;;;31.40;71.00;;;;;;4971888;28;20019;-73
2021/12/17 05:20:47;;;;;;;6.03;2.00;;;31.70;71.50;;;;;;4975626;28;20077;-74
2021/12/17 05:23:14;;;;;;;7.38;1.77;;;31.90;70.30;;;;;;4975239;28;20162;-77
2021/12/17 05:25:42;;;;;;;7.50;2.08;;;31.60;70.90;;;;;;4975418;28;20118;-74
2021/12/17 05:28:09;;;;;;;7.47;1.77;;;31.40;70.60;;;;;;4974945;28;20093;-77
2021/12/17 05:30:40;;;;;;;7.30;2.13;;;31.10;71.20;;;;;;4974641;28;20058;-77
2021/12/17 05:33:07;;;;;;;7.35;2.15;;;31.00;72.10;;;;;;4963858;28;20054;-76
2021/12/17 05:35:34;;;;;;;7.32;2.58;;;30.80;72.60;;;;;;4964720;28;20026;-73
2021/12/17 05:38:02;;;;;;;7.95;2.00;;;30.50;73.90;;;;;;4961091;28;20041;-78
2021/12/17 05:40:29;;;;;;;10.77;2.00;;;30.40;74.10;;;;;;4964644;28;20022;-78
2021/12/17 05:43:00;;;;;;;8.18;1.90;;;30.20;73.60;;;;;;4964671;28;20020;-76
2021/12/17 05:45:35;;;;;;;7.65;2.85;;;29.90;73.50;;;;;;4963797;28;20106;-77
2021/12/17 05:48:06;;;;;;;7.80;1.75;;;29.60;74.80;;;;;;4963626;28;20054;-78
2021/12/17 05:50:42;;;;;;;7.28;1.88;;;29.30;75.70;;;;;;4964692;28;20029;-77
2021/12/17 05:53:10;;;;;;;6.43;2.45;;;29.30;75.90;;;;;;4965386;28;20031;-75
2021/12/17 05:55:38;;;;;;;10.73;1.77;;;29.20;75.70;;;;;;4965087;28;20748;-74
2021/12/17 05:58:07;;;;;;;9.80;1.92;;;29.00;77.50;;;;;;4961823;28;20035;-73
2021/12/17 06:00:38;;;;;;;8.43;1.98;;;28.50;77.90;;;;;;4962837;28;20029;-74
2021/12/17 06:03:05;;;;;;;5.77;1.83;;;28.30;78.30;;;;;;4964286;28;20035;-73
2021/12/17 06:05:33;;;;;;;10.35;2.05;;;28.30;79.30;;;;;;4963890;28;20086;-73
2021/12/17 06:08:00;;;;;;;9.30;1.88;;;28.30;79.10;;;;;;4962517;28;20062;-79
2021/12/17 06:10:27;;;;;;;8.95;1.52;;;28.20;79.20;;;;;;4963820;28;20109;-74
2021/12/17 06:12:55;;;;;;;6.13;1.50;;;28.00;79.40;;;;;;4964216;28;20031;-76
2021/12/17 06:15:25;;;;;;;9.55;1.90;;;27.80;81.20;;;;;;4962478;28;20034;-75
2021/12/17 06:17:52;;;;;;;11.48;2.33;;;27.70;82.10;;;;;;4963082;28;20069;-76
2021/12/17 06:20:22;;;;;;;13.95;2.67;;;27.80;82.40;;;;;;4964280;28;20019;-75
2021/12/17 06:22:49;;;;;;;6.57;1.75;;;27.90;83.40;;;;;;4961551;28;20067;-77
2021/12/17 06:25:17;;;;;;;8.25;2.00;;;27.90;84.00;;;;;;4961242;28;20077;-78
2021/12/17 06:27:45;;;;;;;7.78;1.88;;;27.90;84.50;;;;;;4963766;28;20467;-78
2021/12/17 06:30:14;;;;;;;11.23;2.03;;;27.70;83.60;;;;;;4963413;28;20027;-79
2021/12/17 06:32:42;;;;;;;10.00;2.00;;;27.50;84.60;;;;;;4960556;28;20384;-75
2021/12/17 06:35:10;;;;;;;7.50;2.10;;;27.30;84.50;;;;;;4962732;28;20027;-74
2021/12/17 06:37:40;;;;;;;6.18;1.55;;;27.40;84.50;;;;;;4963680;28;20039;-75
2021/12/17 06:40:08;;;;;;;5.28;1.52;;;27.60;84.50;;;;;;4962421;28;20023;-74
2021/12/17 06:42:40;;;;;;;8.88;2.03;;;27.50;84.90;;;;;;4961566;28;20050;-76
2021/12/17 06:45:16;;;;;;;9.45;1.73;;;27.30;85.90;;;;;;4963527;28;20391;-78
2021/12/17 06:47:52;;;;;;;8.10;2.00;;;27.10;86.70;;;;;;4963603;28;20519;-74
2021/12/17 07:32:18;;;;;;;9.20;2.17;;;25.60;91.90;;;;;;4971061;28;20091;-70
2021/12/17 07:34:42;;;;;;;8.40;2.40;;;25.70;92.10;;;;;;4968916;28;20035;-74
2021/12/17 07:39:41;;;;;;;7.97;1.65;;;25.50;92.40;;;;;;4959658;28;20500;-72
2021/12/17 07:42:08;;;;;;;11.70;2.30;;;25.50;92.60;;;;;;4960928;28;20041;-73
2021/12/17 07:44:36;;;;;;;9.02;2.28;;;25.40;92.90;;;;;;4962988;28;20027;-74
2021/12/17 07:47:04;;;;;;;11.55;2.03;;;25.30;93.00;;;;;;4961194;28;20391;-69
2021/12/17 07:49:31;;;;;;;7.70;2.40;;;25.20;93.40;;;;;;4958307;28;20032;-70
2021/12/17 07:51:59;;;;;;;9.63;1.98;;;25.20;93.50;;;;;;4952869;28;20023;-74
2021/12/17 07:54:27;;;;;;;9.98;2.33;;;25.30;92.90;;;;;;4960803;28;20023;-71
2021/12/17 07:56:54;;;;;;;7.05;2.58;;;25.20;93.10;;;;;;4955566;28;20072;-74
2021/12/17 07:59:21;;;;;;;7.10;2.10;;;25.10;93.10;;;;;;4961718;28;20023;-68
2021/12/17 08:01:49;;;;;;;10.43;2.50;;;24.90;93.40;;;;;;4961983;28;20086;-71
2021/12/17 08:04:16;;;;;;;10.13;2.60;;;24.80;93.60;;;;;;4960104;28;20478;-74
2021/12/17 08:06:44;;;;;;;8.35;2.30;;;24.80;94.10;;;;;;4960779;28;20019;-74
2021/12/17 08:09:11;;;;;;;10.45;2.10;;;24.80;93.90;;;;;;4961859;28;20104;-71
2021/12/17 08:11:40;;;;;;;10.52;2.10;;;24.70;94.00;;;;;;4960073;28;20078;-71
2021/12/17 08:14:12;;;;;;;12.20;3.33;;;24.60;94.20;;;;;;4960917;28;20077;-73
2021/12/17 08:32:47;;;;;;;9.00;2.45;;;24.30;95.60;;;;;;4958481;28;20496;-78
2021/12/17 08:35:14;;;;;;;11.13;2.50;;;24.30;95.80;;;;;;4954118;28;20480;-75
2021/12/17 08:37:42;;;;;;;12.73;2.90;;;24.20;96.10;;;;;;4955062;28;20381;-76
2021/12/17 08:40:10;;;;;;;12.00;3.05;;;24.10;96.30;;;;;;4958579;28;20027;-76
2021/12/17 08:42:38;;;;;;;10.23;2.70;;;24.00;96.60;;;;;;4961348;28;20050;-75
2021/12/17 08:45:08;;;;;;;9.50;2.35;;;24.00;96.80;;;;;;4961054;28;20065;-74
2021/12/17 08:47:36;;;;;;;12.98;2.80;;;23.90;97.00;;;;;;4961857;28;20019;-75
2021/12/17 08:50:07;;;;;;;13.00;3.20;;;23.80;97.20;;;;;;4965181;28;20388;-80
2021/12/17 08:52:36;;;;;;;10.48;2.30;;;23.80;97.50;;;;;;4966237;28;20476;-78
2021/12/17 08:55:05;;;;;;;9.00;1.85;;;23.80;97.60;;;;;;4965325;28;20038;-74
2021/12/17 08:57:32;;;;;;;11.25;2.25;;;23.70;97.70;;;;;;4964422;28;20058;-72
2021/12/17 09:00:05;;;;;;;9.75;2.00;;;23.60;98.00;;;;;;4963887;28;20069;-74
2021/12/17 09:02:33;;;;;;;;;;;23.60;98.50;;;;;;4968220;28;20386;-75
2021/12/17 09:05:01;;;;;;;7.78;2.80;;;23.60;98.40;;;;;;4969212;28;19918;-73
2021/12/17 09:07:28;;;;;;;8.70;2.40;;;23.60;98.70;;;;;;4969802;28;20018;-73
2021/12/17 09:09:56;;;;;;;8.85;2.63;;;23.50;99.00;;;;;;4967605;28;20430;-73
2021/12/17 09:12:24;;;;;;;9.18;2.38;;;23.50;99.40;;;;;;4967237;28;20031;-72
2021/12/17 09:14:51;;;;;;;16.90;3.63;;;23.40;99.20;;;;;;4970032;28;20029;-75
2021/12/17 09:17:21;;;;;;;13.50;2.70;;;23.40;99.50;;;;;;4970466;28;20078;-73
2021/12/17 09:19:48;;;;;;;10.32;3.35;;;23.40;99.20;;;;;;4969113;28;20031;-75
2021/12/17 09:22:16;;;;;;;11.32;2.75;;;23.40;99.70;;;;;;4969844;28;20042;-75
2021/12/17 09:24:43;;;;;;;7.03;1.92;;;23.40;99.50;;;;;;4969462;28;20031;-73
2021/12/17 09:27:11;;;;;;;9.35;2.22;;;23.30;99.70;;;;;;4969766;28;20039;-74
2021/12/17 09:29:38;;;;;;;13.20;2.33;;;23.30;99.90;;;;;;4967682;28;20387;-72
2021/12/17 09:32:06;;;;;;;10.65;2.53;;;23.20;99.90;;;;;;4967354;28;20035;-74
2021/12/17 09:34:33;;;;;;;12.95;2.40;;;23.20;99.90;;;;;;4969467;28;20023;-74
2021/12/17 09:37:01;;;;;;;9.73;2.58;;;23.20;99.90;;;;;;4967944;28;20031;-75
2021/12/17 09:39:28;;;;;;;7.93;2.10;;;23.20;99.90;;;;;;4966662;28;20031;-75
2021/12/17 09:41:56;;;;;;;9.77;2.22;;;23.10;99.90;;;;;;4961920;28;20070;-75
2021/12/17 09:44:23;;;;;;;9.77;2.90;;;23.10;99.90;;;;;;4961020;28;20175;-75
2021/12/17 09:46:55;;;;;;;8.45;2.00;;;23.10;99.90;;;;;;4963659;28;20475;-72
2021/12/17 09:49:22;;;;;;;10.00;2.30;;;23.10;99.90;;;;;;4963058;28;20122;-73
2021/12/17 09:51:50;;;;;;;11.25;2.63;;;23.00;99.90;;;;;;4963171;28;20491;-72
2021/12/17 09:54:19;;;;;;;11.27;2.60;;;23.00;99.90;;;;;;4962579;28;20050;-73
2021/12/17 09:56:47;;;;;;;8.98;2.55;;;23.00;99.90;;;;;;4963679;28;20752;-71
2021/12/17 09:59:20;;;;;;;9.63;2.40;;;23.00;99.90;;;;;;4961681;28;20029;-74
2021/12/17 10:01:48;;;;;;;10.13;2.55;;;23.00;99.90;;;;;;4964341;28;20035;-72
2021/12/17 10:04:27;;;;;;;10.55;2.28;;;23.00;99.90;;;;;;4964394;28;20063;-77
2021/12/17 10:07:21;;;;;;;10.55;2.35;;;23.00;99.90;;;;;;4964286;28;20065;-75
2021/12/17 10:10:04;;;;;;;11.32;2.70;;;23.00;99.90;;;;;;4962648;28;20078;-73
2021/12/17 10:12:32;;;;;;;;;;;22.90;99.90;;;;;;4963655;28;20031;-73
2021/12/17 10:15:13;;;;;;;10.32;3.03;;;22.90;99.90;;;;;;4962676;28;19918;-76
2021/12/17 10:18:02;;;;;;;7.82;2.35;;;22.90;99.90;;;;;;4962668;28;20039;-73
2021/12/17 10:20:32;;;;;;;9.73;2.30;;;22.90;99.90;;;;;;4963199;28;20034;-74
2021/12/17 10:23:05;;;;;;;11.80;3.70;;;22.80;99.90;;;;;;4962692;28;20197;-75
2021/12/17 10:25:35;;;;;;;9.18;2.35;;;22.80;99.90;;;;;;4962572;28;20034;-73
2021/12/17 10:28:06;;;;;;;10.07;2.20;;;22.80;99.90;;;;;;4961672;28;20097;-72
2021/12/17 10:30:36;;;;;;;10.68;2.67;;;22.80;99.90;;;;;;4959163;28;20045;-73
2021/12/17 10:33:07;;;;;;;11.63;2.92;;;22.80;99.90;;;;;;4961463;28;20046;-72
2021/12/17 10:35:43;;;;;;;13.00;2.45;;;22.80;99.90;;;;;;4963366;28;20088;-74
2021/12/17 10:38:14;;;;;;;13.95;3.25;;;22.80;99.90;;;;;;4963282;28;20039;-73
2021/12/17 10:43:38;;;;;;;10.32;2.38;;;22.70;99.90;;;;;;4963317;28;20845;-76
2021/12/17 10:51:46;;;;;;;8.23;2.55;;;22.80;99.90;;;;;;4962361;28;21299;-78
2021/12/17 10:54:20;;;;;;;11.68;2.83;;;22.80;99.90;;;;;;4961242;28;20049;-72
2021/12/17 10:56:47;;;;;;;11.27;2.53;;;22.80;99.90;;;;;;4959731;28;20042;-73
2021/12/17 10:59:24;;;;;;;7.82;2.20;;;22.80;99.90;;;;;;4960785;28;20034;-75
2021/12/17 11:02:04;;;;;;;11.52;2.70;;;22.70;99.90;;;;;;4960289;28;20049;-75
2021/12/17 11:04:35;;;;;;;7.28;2.45;;;22.70;99.90;;;;;;4962042;28;20019;-76
2021/12/17 11:07:13;;;;;;;12.50;3.65;;;22.70;99.90;;;;;;4960621;28;20058;-74
2021/12/17 11:09:50;;;;;;;12.20;2.60;;;22.60;99.90;;;;;;4960179;28;20023;-72
2021/12/17 11:12:31;;;;;;;13.20;2.88;;;22.70;99.90;;;;;;4958140;28;20031;-72
2021/12/17 11:15:18;;;;;;;16.37;3.10;;;22.70;99.90;;;;;;4959921;28;20031;-74
2021/12/17 11:17:51;;;;;;;11.20;2.90;;;22.60;99.90;;;;;;4963791;28;20039;-74
2021/12/17 11:20:26;;;;;;;10.88;2.33;;;22.60;99.90;;;;;;4964842;28;21212;-73
2021/12/17 11:22:56;;;;;;;11.15;2.88;;;22.60;99.90;;;;;;4963180;28;20051;-72
2021/12/17 11:25:24;;;;;;;12.35;3.95;;;22.50;99.90;;;;;;4961833;28;20034;-75
2021/12/17 11:27:53;;;;;;;11.70;3.03;;;22.50;99.90;;;;;;4963206;28;20039;-73
2021/12/17 11:30:27;;;;;;;8.40;2.95;;;22.50;99.90;;;;;;4961918;28;20050;-72
2021/12/17 11:32:55;;;;;;;16.23;3.67;;;22.50;99.90;;;;;;4963909;28;20113;-76
2021/12/17 11:35:26;;;;;;;12.77;2.88;;;22.50;99.90;;;;;;4967487;28;20026;-73
2021/12/17 11:38:00;;;;;;;17.53;3.77;;;22.40;99.90;;;;;;4967490;28;20043;-72
2021/12/17 11:40:29;;;;;;;13.82;3.05;;;22.40;99.90;;;;;;4967554;28;20054;-72
2021/12/17 11:43:16;;;;;;;10.70;2.58;;;22.40;99.90;;;;;;4967624;28;20039;-73
2021/12/17 11:45:45;;;;;;;11.38;2.70;;;22.30;99.90;;;;;;4966147;28;20054;-73
2021/12/17 11:48:22;;;;;;;16.88;3.60;;;22.40;99.90;;;;;;4964378;28;20499;-76
2021/12/17 11:51:06;;;;;;;10.93;2.85;;;22.30;99.90;;;;;;4967412;28;20027;-76
2021/12/17 11:53:40;;;;;;;12.55;2.78;;;22.30;99.90;;;;;;4971876;28;20029;-76
2021/12/17 11:56:07;;;;;;;10.85;3.17;;;22.30;99.90;;;;;;4966001;28;20057;-77
2021/12/17 11:58:46;;;;;;;19.38;2.75;;;22.30;99.90;;;;;;4971236;28;20105;-78
2021/12/17 12:01:33;;;;;;;14.13;3.90;;;22.30;99.90;;;;;;4970057;28;20019;-73
2021/12/17 12:04:33;;;;;;;10.35;2.97;;;22.30;99.90;;;;;;4971971;28;20030;-75
2021/12/17 12:07:11;;;;;;;13.10;3.30;;;22.30;99.90;;;;;;4961407;28;20034;-77
2021/12/17 12:10:03;;;;;;;16.10;3.45;;;22.20;99.90;;;;;;4971716;28;20030;-76
2021/12/17 12:12:45;;;;;;;16.13;3.00;;;22.20;99.90;;;;;;4972041;28;20054;-81
2021/12/17 12:18:06;;;;;;;13.13;3.55;;;22.10;99.90;;;;;;4968374;28;20046;-76
2021/12/17 12:20:52;;;;;;;14.85;4.45;;;22.10;99.90;;;;;;4963049;28;20047;-78
2021/12/17 12:23:25;;;;;;;19.73;3.33;;;22.10;99.90;;;;;;4964971;28;20054;-75
2021/12/17 12:26:05;;;;;;;10.48;3.92;;;22.10;99.90;;;;;;4966768;28;20075;-80
2021/12/17 12:28:49;;;;;;;14.40;3.67;;;22.10;99.90;;;;;;4966444;28;20518;-75
2021/12/17 12:31:26;;;;;;;11.90;2.97;;;22.10;99.90;;;;;;4963576;28;20449;-78
2021/12/17 12:34:04;;;;;;;9.95;3.03;;;22.10;99.90;;;;;;4964936;28;20030;-77
2021/12/17 12:36:54;;;;;;;15.85;3.53;;;22.10;99.90;;;;;;4966203;28;20035;-77
2021/12/17 12:39:43;;;;;;;14.23;3.47;;;22.10;99.90;;;;;;4964724;28;20027;-76
2021/12/17 12:42:24;;;;;;;11.70;3.00;;;22.10;99.90;;;;;;4964130;28;20026;-78
2021/12/17 12:44:52;;;;;;;13.77;3.63;;;22.10;99.90;;;;;;4965832;28;20775;-77
2021/12/17 12:47:31;;;;;;;9.27;2.80;;;22.00;99.90;;;;;;4962383;28;20024;-75
2021/12/17 12:50:14;;;;;;;12.45;3.67;;;22.00;99.90;;;;;;4964083;28;20380;-78
2021/12/17 12:52:45;;;;;;;10.00;2.42;;;22.00;99.90;;;;;;4971250;28;20487;-78
2021/12/17 12:55:53;;;;;;;9.48;2.58;;;22.00;99.90;;;;;;4975594;28;20026;-77
2021/12/17 12:58:28;;;;;;;10.48;2.90;;;22.00;99.90;;;;;;4966535;28;20054;-76
2021/12/17 13:00:59;;;;;;;8.82;2.85;;;22.00;99.90;;;;;;4974750;28;20039;-75
2021/12/17 13:03:29;;;;;;;14.97;3.03;;;21.90;99.90;;;;;;4974825;28;20023;-75
2021/12/17 13:05:59;;;;;;;11.00;2.85;;;21.90;99.90;;;;;;4975055;28;20070;-75
2021/12/17 13:08:30;;;;;;;13.45;3.13;;;21.90;99.90;;;;;;4975122;28;20019;-74
2021/12/17 13:11:07;;;;;;;12.27;2.97;;;21.90;99.90;;;;;;4974997;28;20037;-78
2021/12/17 13:13:50;;;;;;;9.13;2.75;;;21.80;99.90;;;;;;4975028;28;20018;-77
2021/12/17 13:21:46;;;;;;;8.13;2.78;;;21.80;99.90;;;;;;4975014;28;20033;-75
2021/12/17 13:24:16;;;;;;;10.32;2.80;;;21.80;99.90;;;;;;4973065;28;20399;-75
2021/12/17 13:26:50;;;;;;;10.65;2.50;;;21.80;99.90;;;;;;4975025;28;20026;-76
2021/12/17 13:29:21;;;;;;;12.93;3.45;;;21.80;99.90;;;;;;4975184;28;20470;-77
2021/12/17 13:31:54;;;;;;;12.68;3.50;;;21.70;99.90;;;;;;4974724;28;20620;-77
2021/12/17 13:34:30;;;;;;;9.10;2.80;;;21.80;99.90;;;;;;4974230;28;20023;-76
2021/12/17 13:37:02;;;;;;;8.70;2.83;;;21.70;99.90;;;;;;4974722;28;20124;-76
2021/12/17 13:39:41;;;;;;;11.82;2.83;;;21.60;99.90;;;;;;4974911;28;20157;-77
2021/12/17 13:42:12;;;;;;;13.32;3.63;;;21.70;99.90;;;;;;4974588;28;20075;-75
2021/12/17 13:44:44;;;;;;;11.75;2.78;;;21.70;99.90;;;;;;4974615;28;20019;-75
2021/12/17 13:47:13;;;;;;;10.48;4.00;;;21.60;99.90;;;;;;4975048;28;20023;-76
2021/12/17 13:49:43;;;;;;;9.57;2.65;;;21.60;99.90;;;;;;4973678;28;20391;-76
2021/12/17 13:52:11;;;;;;;9.98;2.42;;;21.60;99.90;;;;;;4974898;28;20023;-75
2021/12/17 13:54:38;;;;;;;10.48;2.53;;;21.60;99.90;;;;;;4974419;28;20022;-76
2021/12/17 13:57:07;;;;;;;9.68;2.40;;;21.60;99.90;;;;;;4973023;28;20562;-78
2021/12/17 13:59:37;;;;;;;11.93;3.40;;;21.60;99.90;;;;;;4974298;28;20038;-77
2021/12/17 14:02:33;;;;;;;11.38;2.70;;;21.60;99.90;;;;;;4974129;28;20023;-76
2021/12/17 14:05:14;;;;;;;15.07;3.75;;;21.60;99.90;;;;;;4974388;28;20015;-77
2021/12/17 14:07:42;;;;;;;11.52;2.40;;;21.60;99.90;;;;;;4974541;28;20071;-77
2021/12/17 14:10:14;;;;;;;8.88;2.42;;;21.60;99.90;;;;;;4974261;28;20407;-77
2021/12/17 14:12:43;;;;;;;11.75;2.83;;;21.60;99.90;;;;;;4974299;28;20022;-77
2021/12/17 14:15:27;;;;;;;8.40;2.20;;;21.60;99.90;;;;;;4974269;28;20027;-77
2021/12/17 14:18:06;;;;;;;8.07;2.58;;;21.60;99.90;;;;;;4973824;28;20394;-77
2021/12/17 14:20:42;;;;;;;9.95;2.67;;;21.60;99.90;;;;;;4973981;28;20470;-77
2021/12/17 14:23:12;;;;;;;15.88;4.18;;;21.60;99.90;;;;;;4973877;28;20174;-76
2021/12/17 14:25:47;;;;;;;12.25;3.13;;;21.60;99.90;;;;;;4973366;28;20102;-77
2021/12/17 14:28:32;;;;;;;7.78;2.58;;;21.60;99.90;;;;;;4973389;28;20035;-76
2021/12/17 14:31:01;;;;;;;11.80;2.63;;;21.50;99.90;;;;;;4973997;28;20038;-75
2021/12/17 14:33:34;;;;;;;8.25;2.78;;;21.50;99.90;;;;;;4974127;28;20026;-77
2021/12/17 14:36:02;;;;;;;;;;;21.50;99.90;;;;;;4974024;28;20073;-78
2021/12/17 14:38:53;;;;;;;7.93;2.55;;;21.40;99.90;;;;;;4973691;28;19997;-78
2021/12/17 14:41:29;;;;;;;12.50;3.00;;;21.40;99.90;;;;;;4974226;28;20459;-77
2021/12/17 14:44:02;;;;;;;10.27;2.38;;;21.40;99.90;;;;;;4973773;28;20019;-77
2021/12/17 14:46:51;;;;;;;11.52;2.92;;;21.40;99.90;;;;;;4973257;28;20038;-75
2021/12/17 15:01:18;;;;;;;10.48;2.90;;;21.30;99.90;;;;;;4973745;28;20058;-77
2021/12/17 15:05:45;;;;;;;9.35;2.20;;;21.20;99.90;;;;;;4972755;28;20026;-75
2021/12/17 15:08:13;;;;;;;13.38;3.75;;;21.20;99.90;;;;;;4972669;28;20050;-77
2021/12/17 15:10:41;;;;;;;13.32;2.92;;;21.20;99.90;;;;;;4973594;28;20431;-77
2021/12/17 15:13:09;;;;;;;10.55;3.00;;;21.20;99.90;;;;;;4973361;28;20034;-77
2021/12/17 15:15:39;;;;;;;11.50;2.58;;;21.20;99.90;;;;;;4972076;28;20027;-77
2021/12/17 15:18:14;;;;;;;12.05;2.92;;;21.10;99.90;;;;;;4973284;28;20086;-76
2021/12/17 15:20:47;;;;;;;8.43;3.03;;;21.10;99.90;;;;;;4973334;28;20093;-77
2021/12/17 15:23:16;;;;;;;13.65;3.20;;;21.10;99.90;;;;;;4972855;28;20125;-77
2021/12/17 15:25:45;;;;;;;10.70;3.83;;;21.10;99.90;;;;;;4971289;28;20026;-76
2021/12/17 15:28:15;;;;;;;11.77;3.22;;;21.10;99.90;;;;;;4973370;28;20031;-76
2021/12/17 15:30:48;;;;;;;10.75;3.50;;;21.00;99.90;;;;;;4973333;28;20023;-77
2021/12/17 15:33:17;;;;;;;18.50;2.83;;;21.00;99.90;;;;;;4972896;28;20029;-76
2021/12/17 15:35:45;;;;;;;10.48;3.20;;;21.00;99.90;;;;;;4972716;28;20527;-76
2021/12/17 15:38:13;;;;;;;15.20;3.15;;;20.90;99.90;;;;;;4972826;28;20046;-78
2021/12/17 15:40:43;;;;;;;12.82;4.00;;;20.90;99.90;;;;;;4972963;28;20023;-77
2021/12/17 15:43:11;;;;;;;11.13;3.08;;;20.90;99.90;;;;;;4973102;28;20027;-75
2021/12/17 15:45:41;;;;;;;11.25;3.55;;;20.90;99.90;;;;;;4972796;28;20023;-77
2021/12/17 15:48:11;;;;;;;13.25;3.60;;;20.90;99.90;;;;;;4972436;28;20019;-77
2021/12/17 15:50:39;;;;;;;11.13;3.10;;;20.90;99.90;;;;;;4973010;28;20034;-77
2021/12/17 15:53:07;;;;;;;14.45;3.35;;;20.90;99.90;;;;;;4973093;28;20030;-75
2021/12/17 15:55:34;;;;;;;8.75;3.45;;;20.80;99.90;;;;;;4972880;28;20091;-78
2021/12/17 15:58:02;;;;;;;8.45;3.05;;;20.90;99.90;;;;;;4971862;28;20035;-77
2021/12/17 16:00:33;;;;;;;8.93;3.03;;;20.90;99.90;;;;;;4972059;28;20034;-77
2021/12/17 16:03:02;;;;;;;12.45;2.55;;;20.80;99.90;;;;;;4971949;28;20027;-75
2021/12/17 16:05:32;;;;;;;13.50;3.83;;;20.80;99.90;;;;;;4971853;28;20022;-75
2021/12/17 16:07:59;;;;;;;9.05;2.50;;;20.80;99.90;;;;;;4971948;28;20015;-77
2021/12/17 16:21:10;;;;;;;9.43;3.08;;;20.80;99.90;;;;;;4971926;28;20676;-77
2021/12/17 16:23:44;;;;;;;9.73;2.72;;;20.80;99.90;;;;;;4971945;28;20051;-77
2021/12/17 16:26:13;;;;;;;12.63;3.35;;;20.80;99.90;;;;;;4972243;28;20037;-77
2021/12/17 16:28:45;;;;;;;15.23;3.00;;;20.70;99.90;;;;;;4970786;28;20438;-77
2021/12/17 16:31:16;;;;;;;11.73;3.13;;;20.70;99.90;;;;;;4971821;28;20360;-76
2021/12/17 16:33:45;;;;;;;10.57;3.13;;;20.70;99.90;;;;;;4972075;28;20015;-78
2021/12/17 16:36:13;;;;;;;11.80;3.85;;;20.70;99.90;;;;;;4972450;28;20058;-77
2021/12/17 16:38:41;;;;;;;9.57;3.50;;;20.70;99.90;;;;;;4972424;28;20387;-76
2021/12/17 16:41:09;;;;;;;12.10;4.80;;;20.60;99.90;;;;;;4972498;28;20023;-78
2021/12/17 16:43:37;;;;;;;10.93;3.22;;;20.60;99.90;;;;;;4972077;28;20451;-77
2021/12/17 16:48:48;;;;;;;11.30;3.22;;;20.50;99.90;;;;;;4971912;28;20062;-77
2021/12/17 16:51:16;;;;;;;14.05;3.05;;;20.50;99.90;;;;;;4972751;28;20033;-77